sensor_id;sensor_type;location;lat;lon;timestamp;P1;durP1;ratioP1;P2;durP2;ratioP2
80694;SDS011;70059;42.702;23.312;2023-05-16T00:01:07;22.20;;;16.42;;
80694;SDS011;70059;42.702;23.312;2023-05-16T00:03:34;22.80;;;17.38;;
80694;SDS011;70059;42.702;23.312;2023-05-16T00:06:02;25.75;;;16.77;;
80694;SDS011;70059;42.702;23.312;2023-05-16T00:08:29;24.67;;;17.30;;
80694;SDS011;70059;42.702;23.312;2023-05-16T00:10:55;21.67;;;17.50;;
80694;SDS011;70059;42.702;23.312;2023-05-16T00:13:21;23.95;;;17.42;;
80694;SDS011;70059;42.702;23.312;2023-05-16T00:15:50;26.38;;;17.55;;
80694;SDS011;70059;42.702;23.312;2023-05-16T00:18:16;21.92;;;17.48;;
80694;SDS011;70059;42.702;23.312;2023-05-16T00:20:43;19.77;;;15.40;;
80694;SDS011;70059;42.702;23.312;2023-05-16T00:23:09;27.50;;;18.27;;
80694;SDS011;70059;42.702;23.312;2023-05-16T00:25:37;22.88;;;17.33;;
80694;SDS011;70059;42.702;23.312;2023-05-16T00:28:02;23.58;;;18.02;;
80694;SDS011;70059;42.702;23.312;2023-05-16T00:30:28;23.13;;;17.67;;
80694;SDS011;70059;42.702;23.312;2023-05-16T00:32:54;25.08;;;16.80;;
80694;SDS011;70059;42.702;23.312;2023-05-16T00:35:20;23.30;;;18.05;;
80694;SDS011;70059;42.702;23.312;2023-05-16T00:37:46;21.27;;;16.48;;
80694;SDS011;70059;42.702;23.312;2023-05-16T00:40:12;24.77;;;17.98;;
80694;SDS011;70059;42.702;23.312;2023-05-16T00:42:38;23.60;;;18.25;;
80694;SDS011;70059;42.702;23.312;2023-05-16T00:45:04;25.05;;;18.45;;
80694;SDS011;70059;42.702;23.312;2023-05-16T00:47:31;26.02;;;18.85;;
80694;SDS011;70059;42.702;23.312;2023-05-16T00:49:56;25.63;;;19.52;;
80694;SDS011;70059;42.702;23.312;2023-05-16T00:52:23;22.70;;;18.30;;
80694;SDS011;70059;42.702;23.312;2023-05-16T00:54:49;22.80;;;18.02;;
80694;SDS011;70059;42.702;23.312;2023-05-16T00:57:16;24.15;;;18.77;;
80694;SDS011;70059;42.702;23.312;2023-05-16T00:59:43;24.80;;;18.58;;
80694;SDS011;70059;42.702;23.312;2023-05-16T01:02:10;23.95;;;19.05;;
80694;SDS011;70059;42.702;23.312;2023-05-16T01:04:37;23.38;;;19.00;;
80694;SDS011;70059;42.702;23.312;2023-05-16T01:07:03;27.40;;;18.05;;
80694;SDS011;70059;42.702;23.312;2023-05-16T01:09:29;21.98;;;17.25;;
80694;SDS011;70059;42.702;23.312;2023-05-16T01:12:00;23.10;;;18.65;;
80694;SDS011;70059;42.702;23.312;2023-05-16T01:27:56;26.08;;;18.83;;
80694;SDS011;70059;42.702;23.312;2023-05-16T01:30:23;27.02;;;18.70;;
80694;SDS011;70059;42.702;23.312;2023-05-16T01:32:49;26.63;;;19.17;;
80694;SDS011;70059;42.702;23.312;2023-05-16T01:35:16;24.98;;;17.40;;
80694;SDS011;70059;42.702;23.312;2023-05-16T01:37:50;23.77;;;18.55;;
80694;SDS011;70059;42.702;23.312;2023-05-16T01:40:29;28.48;;;19.45;;
80694;SDS011;70059;42.702;23.312;2023-05-16T01:43:20;23.92;;;18.08;;
80694;SDS011;70059;42.702;23.312;2023-05-16T01:46:08;23.92;;;18.58;;
80694;SDS011;70059;42.702;23.312;2023-05-16T01:48:43;23.38;;;18.52;;
80694;SDS011;70059;42.702;23.312;2023-05-16T01:51:14;23.90;;;18.25;;
80694;SDS011;70059;42.702;23.312;2023-05-16T01:53:40;22.50;;;17.92;;
80694;SDS011;70059;42.702;23.312;2023-05-16T01:56:10;20.98;;;17.67;;
80694;SDS011;70059;42.702;23.312;2023-05-16T01:58:40;21.70;;;16.17;;
80694;SDS011;70059;42.702;23.312;2023-05-16T02:01:07;22.30;;;16.35;;
80694;SDS011;70059;42.702;23.312;2023-05-16T02:03:33;22.17;;;17.25;;
80694;SDS011;70059;42.702;23.312;2023-05-16T02:05:59;22.40;;;17.05;;
80694;SDS011;70059;42.702;23.312;2023-05-16T02:08:25;20.35;;;16.58;;
80694;SDS011;70059;42.702;23.312;2023-05-16T02:10:52;21.27;;;17.20;;
80694;SDS011;70059;42.702;23.312;2023-05-16T02:13:18;21.48;;;15.82;;
80694;SDS011;70059;42.702;23.312;2023-05-16T02:15:44;18.63;;;15.43;;
80694;SDS011;70059;42.702;23.312;2023-05-16T02:18:09;21.73;;;17.02;;
80694;SDS011;70059;42.702;23.312;2023-05-16T02:20:36;19.83;;;16.00;;
80694;SDS011;70059;42.702;23.312;2023-05-16T02:23:02;21.33;;;15.05;;
80694;SDS011;70059;42.702;23.312;2023-05-16T02:25:28;20.58;;;15.48;;
80694;SDS011;70059;42.702;23.312;2023-05-16T02:27:54;18.67;;;14.60;;
80694;SDS011;70059;42.702;23.312;2023-05-16T02:30:20;18.90;;;14.48;;
80694;SDS011;70059;42.702;23.312;2023-05-16T02:32:46;17.88;;;14.60;;
80694;SDS011;70059;42.702;23.312;2023-05-16T02:35:13;19.83;;;15.05;;
80694;SDS011;70059;42.702;23.312;2023-05-16T02:37:39;22.65;;;14.98;;
80694;SDS011;70059;42.702;23.312;2023-05-16T02:40:05;23.65;;;14.43;;
80694;SDS011;70059;42.702;23.312;2023-05-16T02:42:31;18.50;;;15.07;;
80694;SDS011;70059;42.702;23.312;2023-05-16T02:44:57;17.33;;;14.15;;
80694;SDS011;70059;42.702;23.312;2023-05-16T02:47:23;23.17;;;14.68;;
80694;SDS011;70059;42.702;23.312;2023-05-16T02:49:49;18.77;;;14.73;;
80694;SDS011;70059;42.702;23.312;2023-05-16T02:52:16;18.58;;;14.02;;
80694;SDS011;70059;42.702;23.312;2023-05-16T02:54:45;20.42;;;15.25;;
80694;SDS011;70059;42.702;23.312;2023-05-16T02:57:11;20.50;;;13.73;;
80694;SDS011;70059;42.702;23.312;2023-05-16T02:59:37;17.77;;;13.77;;
80694;SDS011;70059;42.702;23.312;2023-05-16T03:02:03;16.98;;;13.93;;
80694;SDS011;70059;42.702;23.312;2023-05-16T03:04:28;19.80;;;13.43;;
80694;SDS011;70059;42.702;23.312;2023-05-16T03:06:54;16.80;;;13.65;;
80694;SDS011;70059;42.702;23.312;2023-05-16T03:09:20;18.73;;;14.38;;
80694;SDS011;70059;42.702;23.312;2023-05-16T03:11:46;20.67;;;14.73;;
80694;SDS011;70059;42.702;23.312;2023-05-16T03:14:11;22.80;;;14.63;;
80694;SDS011;70059;42.702;23.312;2023-05-16T03:16:37;23.95;;;14.63;;
80694;SDS011;70059;42.702;23.312;2023-05-16T03:19:04;20.05;;;14.70;;
80694;SDS011;70059;42.702;23.312;2023-05-16T03:21:29;19.67;;;15.52;;
80694;SDS011;70059;42.702;23.312;2023-05-16T03:23:55;19.73;;;14.05;;
80694;SDS011;70059;42.702;23.312;2023-05-16T03:26:22;18.15;;;13.98;;
80694;SDS011;70059;42.702;23.312;2023-05-16T03:28:51;20.38;;;14.50;;
80694;SDS011;70059;42.702;23.312;2023-05-16T03:31:17;17.08;;;14.07;;
80694;SDS011;70059;42.702;23.312;2023-05-16T03:33:43;18.05;;;13.98;;
80694;SDS011;70059;42.702;23.312;2023-05-16T03:36:09;19.02;;;14.20;;
80694;SDS011;70059;42.702;23.312;2023-05-16T03:38:35;17.17;;;13.85;;
80694;SDS011;70059;42.702;23.312;2023-05-16T03:41:01;20.05;;;14.77;;
80694;SDS011;70059;42.702;23.312;2023-05-16T03:43:27;17.90;;;14.00;;
80694;SDS011;70059;42.702;23.312;2023-05-16T03:45:53;19.38;;;14.10;;
80694;SDS011;70059;42.702;23.312;2023-05-16T03:48:19;20.45;;;14.68;;
80694;SDS011;70059;42.702;23.312;2023-05-16T03:50:45;22.63;;;15.68;;
80694;SDS011;70059;42.702;23.312;2023-05-16T03:53:11;31.33;;;24.88;;
80694;SDS011;70059;42.702;23.312;2023-05-16T03:55:37;21.13;;;16.55;;
80694;SDS011;70059;42.702;23.312;2023-05-16T03:58:03;18.83;;;14.18;;
80694;SDS011;70059;42.702;23.312;2023-05-16T04:00:29;21.30;;;15.85;;
80694;SDS011;70059;42.702;23.312;2023-05-16T04:02:54;21.48;;;15.25;;
80694;SDS011;70059;42.702;23.312;2023-05-16T04:05:20;23.63;;;15.73;;
80694;SDS011;70059;42.702;23.312;2023-05-16T04:07:46;20.65;;;15.00;;
80694;SDS011;70059;42.702;23.312;2023-05-16T04:10:12;20.30;;;15.52;;
80694;SDS011;70059;42.702;23.312;2023-05-16T04:12:41;23.17;;;15.57;;
80694;SDS011;70059;42.702;23.312;2023-05-16T04:15:08;23.45;;;15.88;;
80694;SDS011;70059;42.702;23.312;2023-05-16T04:17:38;22.75;;;14.32;;
80694;SDS011;70059;42.702;23.312;2023-05-16T04:20:07;17.73;;;13.77;;
80694;SDS011;70059;42.702;23.312;2023-05-16T04:22:51;17.67;;;14.13;;
80694;SDS011;70059;42.702;23.312;2023-05-16T04:25:50;21.35;;;14.20;;
80694;SDS011;70059;42.702;23.312;2023-05-16T04:44:03;22.52;;;14.48;;
80694;SDS011;70059;42.702;23.312;2023-05-16T04:46:29;18.73;;;13.80;;
80694;SDS011;70059;42.702;23.312;2023-05-16T04:48:58;19.83;;;14.95;;
80694;SDS011;70059;42.702;23.312;2023-05-16T04:51:47;23.20;;;15.82;;
80694;SDS011;70059;42.702;23.312;2023-05-16T04:54:17;19.98;;;13.38;;
80694;SDS011;70059;42.702;23.312;2023-05-16T04:59:57;18.27;;;14.45;;
80694;SDS011;70059;42.702;23.312;2023-05-16T05:02:41;19.17;;;14.15;;
80694;SDS011;70059;42.702;23.312;2023-05-16T05:05:30;23.02;;;16.45;;
80694;SDS011;70059;42.702;23.312;2023-05-16T05:08:01;21.52;;;15.70;;
80694;SDS011;70059;42.702;23.312;2023-05-16T05:10:54;19.70;;;14.68;;
80694;SDS011;70059;42.702;23.312;2023-05-16T05:29:07;21.42;;;14.68;;
80694;SDS011;70059;42.702;23.312;2023-05-16T05:35:00;23.05;;;14.48;;
80694;SDS011;70059;42.702;23.312;2023-05-16T05:37:27;20.75;;;14.68;;
80694;SDS011;70059;42.702;23.312;2023-05-16T05:39:54;23.98;;;14.48;;
80694;SDS011;70059;42.702;23.312;2023-05-16T05:42:20;22.08;;;14.32;;
80694;SDS011;70059;42.702;23.312;2023-05-16T05:44:45;23.50;;;14.85;;
80694;SDS011;70059;42.702;23.312;2023-05-16T05:47:11;18.42;;;14.93;;
80694;SDS011;70059;42.702;23.312;2023-05-16T05:49:37;25.73;;;15.60;;
80694;SDS011;70059;42.702;23.312;2023-05-16T05:52:02;20.63;;;15.43;;
80694;SDS011;70059;42.702;23.312;2023-05-16T05:54:28;27.25;;;16.92;;
80694;SDS011;70059;42.702;23.312;2023-05-16T05:56:55;28.27;;;18.13;;
80694;SDS011;70059;42.702;23.312;2023-05-16T05:59:23;27.05;;;17.63;;
80694;SDS011;70059;42.702;23.312;2023-05-16T06:01:54;22.33;;;16.42;;
80694;SDS011;70059;42.702;23.312;2023-05-16T06:04:20;28.10;;;16.70;;
80694;SDS011;70059;42.702;23.312;2023-05-16T06:06:46;23.00;;;15.18;;
80694;SDS011;70059;42.702;23.312;2023-05-16T06:09:12;25.30;;;16.15;;
80694;SDS011;70059;42.702;23.312;2023-05-16T06:11:39;20.98;;;15.35;;
80694;SDS011;70059;42.702;23.312;2023-05-16T06:17:27;28.42;;;18.85;;
80694;SDS011;70059;42.702;23.312;2023-05-16T06:19:53;28.20;;;15.88;;
80694;SDS011;70059;42.702;23.312;2023-05-16T06:22:18;24.92;;;14.30;;
80694;SDS011;70059;42.702;23.312;2023-05-16T06:24:44;18.67;;;13.63;;
80694;SDS011;70059;42.702;23.312;2023-05-16T06:27:10;20.75;;;13.25;;
80694;SDS011;70059;42.702;23.312;2023-05-16T06:29:35;22.95;;;13.57;;
80694;SDS011;70059;42.702;23.312;2023-05-16T06:32:01;19.90;;;13.35;;
80694;SDS011;70059;42.702;23.312;2023-05-16T06:37:49;19.55;;;13.18;;
80694;SDS011;70059;42.702;23.312;2023-05-16T06:40:14;17.52;;;13.65;;
80694;SDS011;70059;42.702;23.312;2023-05-16T06:42:40;18.95;;;13.93;;
80694;SDS011;70059;42.702;23.312;2023-05-16T06:45:06;24.42;;;14.90;;
80694;SDS011;70059;42.702;23.312;2023-05-16T06:47:32;21.75;;;14.80;;
80694;SDS011;70059;42.702;23.312;2023-05-16T06:49:58;23.08;;;14.05;;
80694;SDS011;70059;42.702;23.312;2023-05-16T06:55:46;20.33;;;13.00;;
80694;SDS011;70059;42.702;23.312;2023-05-16T06:58:11;29.15;;;13.45;;
80694;SDS011;70059;42.702;23.312;2023-05-16T07:00:37;18.17;;;12.70;;
80694;SDS011;70059;42.702;23.312;2023-05-16T07:03:03;22.75;;;13.23;;
80694;SDS011;70059;42.702;23.312;2023-05-16T07:05:29;19.67;;;13.05;;
80694;SDS011;70059;42.702;23.312;2023-05-16T07:07:55;17.63;;;13.43;;
80694;SDS011;70059;42.702;23.312;2023-05-16T07:10:21;19.63;;;13.73;;
80694;SDS011;70059;42.702;23.312;2023-05-16T07:19:36;22.33;;;12.45;;
80694;SDS011;70059;42.702;23.312;2023-05-16T07:22:02;15.45;;;12.00;;
80694;SDS011;70059;42.702;23.312;2023-05-16T07:24:29;22.05;;;12.27;;
80694;SDS011;70059;42.702;23.312;2023-05-16T07:26:54;16.23;;;10.45;;
80694;SDS011;70059;42.702;23.312;2023-05-16T07:29:20;18.13;;;10.65;;
80694;SDS011;70059;42.702;23.312;2023-05-16T07:31:46;18.50;;;10.80;;
80694;SDS011;70059;42.702;23.312;2023-05-16T07:34:11;16.00;;;10.52;;
80694;SDS011;70059;42.702;23.312;2023-05-16T07:36:37;16.13;;;10.82;;
80694;SDS011;70059;42.702;23.312;2023-05-16T07:39:03;16.35;;;11.65;;
80694;SDS011;70059;42.702;23.312;2023-05-16T07:41:29;19.90;;;11.98;;
80694;SDS011;70059;42.702;23.312;2023-05-16T07:43:55;18.83;;;11.82;;
80694;SDS011;70059;42.702;23.312;2023-05-16T07:46:21;16.15;;;11.32;;
80694;SDS011;70059;42.702;23.312;2023-05-16T07:48:46;17.85;;;12.05;;
80694;SDS011;70059;42.702;23.312;2023-05-16T07:54:34;18.25;;;11.85;;
80694;SDS011;70059;42.702;23.312;2023-05-16T07:57:01;16.90;;;11.23;;
80694;SDS011;70059;42.702;23.312;2023-05-16T08:07:05;17.58;;;12.40;;
80694;SDS011;70059;42.702;23.312;2023-05-16T08:09:32;15.45;;;11.05;;
80694;SDS011;70059;42.702;23.312;2023-05-16T08:15:19;17.50;;;11.20;;
80694;SDS011;70059;42.702;23.312;2023-05-16T08:17:45;17.23;;;11.15;;
80694;SDS011;70059;42.702;23.312;2023-05-16T08:20:11;15.88;;;11.85;;
80694;SDS011;70059;42.702;23.312;2023-05-16T08:22:37;16.30;;;11.32;;
80694;SDS011;70059;42.702;23.312;2023-05-16T08:25:06;20.02;;;12.15;;
80694;SDS011;70059;42.702;23.312;2023-05-16T08:27:39;16.23;;;11.40;;
80694;SDS011;70059;42.702;23.312;2023-05-16T08:30:05;16.67;;;10.77;;
80694;SDS011;70059;42.702;23.312;2023-05-16T08:32:31;17.63;;;11.63;;
80694;SDS011;70059;42.702;23.312;2023-05-16T08:34:57;18.92;;;11.45;;
80694;SDS011;70059;42.702;23.312;2023-05-16T08:37:24;15.75;;;11.02;;
80694;SDS011;70059;42.702;23.312;2023-05-16T08:39:49;15.20;;;11.55;;
80694;SDS011;70059;42.702;23.312;2023-05-16T08:42:15;20.67;;;11.35;;
80694;SDS011;70059;42.702;23.312;2023-05-16T08:48:10;16.92;;;10.73;;
80694;SDS011;70059;42.702;23.312;2023-05-16T08:50:44;25.20;;;11.77;;
80694;SDS011;70059;42.702;23.312;2023-05-16T08:56:32;18.48;;;11.45;;
80694;SDS011;70059;42.702;23.312;2023-05-16T08:59:00;15.00;;;10.68;;
80694;SDS011;70059;42.702;23.312;2023-05-16T09:01:26;14.50;;;10.35;;
80694;SDS011;70059;42.702;23.312;2023-05-16T09:03:52;12.55;;;9.90;;
80694;SDS011;70059;42.702;23.312;2023-05-16T09:06:19;14.23;;;10.45;;
80694;SDS011;70059;42.702;23.312;2023-05-16T09:08:45;12.38;;;10.20;;
80694;SDS011;70059;42.702;23.312;2023-05-16T09:11:11;16.55;;;10.90;;
80694;SDS011;70059;42.702;23.312;2023-05-16T09:13:37;17.80;;;10.00;;
80694;SDS011;70059;42.702;23.312;2023-05-16T09:16:14;14.93;;;9.93;;
80694;SDS011;70059;42.702;23.312;2023-05-16T09:18:41;13.27;;;10.00;;
80694;SDS011;70059;42.702;23.312;2023-05-16T09:24:40;15.32;;;10.45;;
80694;SDS011;70059;42.702;23.312;2023-05-16T09:27:08;18.95;;;11.27;;
80694;SDS011;70059;42.702;23.312;2023-05-16T09:32:56;14.52;;;10.10;;
80694;SDS011;70059;42.702;23.312;2023-05-16T09:40:25;14.38;;;10.35;;
80694;SDS011;70059;42.702;23.312;2023-05-16T09:43:01;21.00;;;10.30;;
80694;SDS011;70059;42.702;23.312;2023-05-16T09:45:31;15.87;;;11.00;;
80694;SDS011;70059;42.702;23.312;2023-05-16T09:48:01;14.80;;;9.88;;
80694;SDS011;70059;42.702;23.312;2023-05-16T09:50:31;19.45;;;10.85;;
80694;SDS011;70059;42.702;23.312;2023-05-16T09:56:27;15.15;;;9.95;;
80694;SDS011;70059;42.702;23.312;2023-05-16T09:58:54;13.63;;;9.68;;
80694;SDS011;70059;42.702;23.312;2023-05-16T10:01:20;17.33;;;10.38;;
80694;SDS011;70059;42.702;23.312;2023-05-16T10:03:46;13.73;;;9.90;;
80694;SDS011;70059;42.702;23.312;2023-05-16T10:09:34;14.80;;;10.38;;
80694;SDS011;70059;42.702;23.312;2023-05-16T10:12:01;12.60;;;8.82;;
80694;SDS011;70059;42.702;23.312;2023-05-16T10:17:52;16.80;;;10.15;;
80694;SDS011;70059;42.702;23.312;2023-05-16T10:26:02;16.70;;;10.63;;
80694;SDS011;70059;42.702;23.312;2023-05-16T10:44:18;17.83;;;10.93;;
80694;SDS011;70059;42.702;23.312;2023-05-16T11:00:11;17.88;;;10.90;;
80694;SDS011;70059;42.702;23.312;2023-05-16T11:06:08;13.85;;;10.48;;
80694;SDS011;70059;42.702;23.312;2023-05-16T11:08:33;16.40;;;10.68;;
80694;SDS011;70059;42.702;23.312;2023-05-16T11:14:25;17.25;;;11.38;;
80694;SDS011;70059;42.702;23.312;2023-05-16T11:20:30;20.15;;;10.75;;
80694;SDS011;70059;42.702;23.312;2023-05-16T11:32:44;17.65;;;11.60;;
80694;SDS011;70059;42.702;23.312;2023-05-16T11:35:13;15.50;;;11.68;;
80694;SDS011;70059;42.702;23.312;2023-05-16T11:41:05;20.25;;;12.23;;
80694;SDS011;70059;42.702;23.312;2023-05-16T11:43:38;17.67;;;12.60;;
80694;SDS011;70059;42.702;23.312;2023-05-16T11:46:05;18.05;;;11.52;;
80694;SDS011;70059;42.702;23.312;2023-05-16T11:48:32;17.73;;;11.80;;
80694;SDS011;70059;42.702;23.312;2023-05-16T11:54:19;19.65;;;12.27;;
80694;SDS011;70059;42.702;23.312;2023-05-16T12:00:14;22.50;;;12.00;;
80694;SDS011;70059;42.702;23.312;2023-05-16T12:06:37;14.82;;;11.13;;
80694;SDS011;70059;42.702;23.312;2023-05-16T12:12:25;23.27;;;12.98;;
80694;SDS011;70059;42.702;23.312;2023-05-16T12:14:52;22.25;;;11.77;;
80694;SDS011;70059;42.702;23.312;2023-05-16T12:20:40;20.83;;;12.02;;
80694;SDS011;70059;42.702;23.312;2023-05-16T12:23:10;18.98;;;11.25;;
80694;SDS011;70059;42.702;23.312;2023-05-16T12:25:38;18.30;;;11.03;;
80694;SDS011;70059;42.702;23.312;2023-05-16T12:31:34;18.13;;;12.20;;
80694;SDS011;70059;42.702;23.312;2023-05-16T12:34:01;17.45;;;10.85;;
80694;SDS011;70059;42.702;23.312;2023-05-16T12:40:17;12.60;;;10.07;;
80694;SDS011;70059;42.702;23.312;2023-05-16T12:52:50;17.83;;;10.93;;
80694;SDS011;70059;42.702;23.312;2023-05-16T12:55:18;19.52;;;11.75;;
80694;SDS011;70059;42.702;23.312;2023-05-16T12:57:45;16.55;;;11.90;;
80694;SDS011;70059;42.702;23.312;2023-05-16T13:00:12;16.52;;;10.38;;
80694;SDS011;70059;42.702;23.312;2023-05-16T13:02:39;18.55;;;11.50;;
80694;SDS011;70059;42.702;23.312;2023-05-16T13:05:11;21.40;;;12.77;;
80694;SDS011;70059;42.702;23.312;2023-05-16T13:07:37;17.40;;;11.75;;
80694;SDS011;70059;42.702;23.312;2023-05-16T13:13:26;22.00;;;12.60;;
80694;SDS011;70059;42.702;23.312;2023-05-16T13:15:52;21.23;;;13.40;;
80694;SDS011;70059;42.702;23.312;2023-05-16T13:21:39;22.88;;;14.80;;
80694;SDS011;70059;42.702;23.312;2023-05-16T13:27:27;18.90;;;11.38;;
80694;SDS011;70059;42.702;23.312;2023-05-16T13:29:59;18.58;;;11.55;;
80694;SDS011;70059;42.702;23.312;2023-05-16T13:32:31;16.75;;;10.73;;
80694;SDS011;70059;42.702;23.312;2023-05-16T13:34:56;19.38;;;11.68;;
80694;SDS011;70059;42.702;23.312;2023-05-16T13:37:22;17.92;;;11.88;;
80694;SDS011;70059;42.702;23.312;2023-05-16T13:43:13;16.13;;;11.40;;
80694;SDS011;70059;42.702;23.312;2023-05-16T13:45:39;23.65;;;12.18;;
80694;SDS011;70059;42.702;23.312;2023-05-16T13:48:05;22.25;;;15.38;;
80694;SDS011;70059;42.702;23.312;2023-05-16T13:53:53;20.55;;;12.48;;
80694;SDS011;70059;42.702;23.312;2023-05-16T13:56:19;18.05;;;11.50;;
80694;SDS011;70059;42.702;23.312;2023-05-16T14:02:07;27.95;;;12.63;;
80694;SDS011;70059;42.702;23.312;2023-05-16T14:07:55;24.00;;;11.65;;
80694;SDS011;70059;42.702;23.312;2023-05-16T14:13:49;21.58;;;11.60;;
80694;SDS011;70059;42.702;23.312;2023-05-16T14:16:14;19.08;;;11.88;;
80694;SDS011;70059;42.702;23.312;2023-05-16T14:18:40;21.17;;;12.73;;
80694;SDS011;70059;42.702;23.312;2023-05-16T14:26:53;22.42;;;15.15;;
80694;SDS011;70059;42.702;23.312;2023-05-16T14:29:19;25.90;;;14.32;;
80694;SDS011;70059;42.702;23.312;2023-05-16T14:31:45;24.25;;;14.85;;
80694;SDS011;70059;42.702;23.312;2023-05-16T14:34:11;26.10;;;16.00;;
80694;SDS011;70059;42.702;23.312;2023-05-16T14:36:37;24.10;;;15.93;;
80694;SDS011;70059;42.702;23.312;2023-05-16T14:39:02;27.52;;;15.32;;
80694;SDS011;70059;42.702;23.312;2023-05-16T14:41:28;25.33;;;15.75;;
80694;SDS011;70059;42.702;23.312;2023-05-16T14:43:54;28.15;;;15.38;;
80694;SDS011;70059;42.702;23.312;2023-05-16T14:46:20;25.73;;;15.20;;
80694;SDS011;70059;42.702;23.312;2023-05-16T14:48:45;29.30;;;17.42;;
80694;SDS011;70059;42.702;23.312;2023-05-16T14:51:11;25.33;;;16.73;;
80694;SDS011;70059;42.702;23.312;2023-05-16T14:57:08;23.50;;;15.38;;
80694;SDS011;70059;42.702;23.312;2023-05-16T14:59:33;30.30;;;16.85;;
80694;SDS011;70059;42.702;23.312;2023-05-16T15:02:06;24.65;;;13.63;;
80694;SDS011;70059;42.702;23.312;2023-05-16T15:04:31;23.15;;;13.90;;
80694;SDS011;70059;42.702;23.312;2023-05-16T15:06:58;19.67;;;12.32;;
80694;SDS011;70059;42.702;23.312;2023-05-16T15:09:23;21.00;;;14.32;;
80694;SDS011;70059;42.702;23.312;2023-05-16T15:11:49;18.85;;;13.43;;
80694;SDS011;70059;42.702;23.312;2023-05-16T15:14:15;23.63;;;14.68;;
80694;SDS011;70059;42.702;23.312;2023-05-16T15:16:41;24.98;;;15.95;;
80694;SDS011;70059;42.702;23.312;2023-05-16T15:19:07;22.42;;;13.57;;
80694;SDS011;70059;42.702;23.312;2023-05-16T15:21:32;24.50;;;14.15;;
80694;SDS011;70059;42.702;23.312;2023-05-16T15:23:58;20.80;;;12.68;;
80694;SDS011;70059;42.702;23.312;2023-05-16T15:26:24;22.20;;;14.98;;
80694;SDS011;70059;42.702;23.312;2023-05-16T15:31:41;23.23;;;13.80;;
80694;SDS011;70059;42.702;23.312;2023-05-16T15:34:15;21.88;;;15.55;;
80694;SDS011;70059;42.702;23.312;2023-05-16T15:36:40;24.58;;;15.90;;
80694;SDS011;70059;42.702;23.312;2023-05-16T15:39:06;26.25;;;16.40;;
80694;SDS011;70059;42.702;23.312;2023-05-16T15:41:32;20.30;;;13.77;;
80694;SDS011;70059;42.702;23.312;2023-05-16T15:43:58;23.75;;;14.27;;
80694;SDS011;70059;42.702;23.312;2023-05-16T15:46:23;22.38;;;14.52;;
80694;SDS011;70059;42.702;23.312;2023-05-16T15:48:49;20.23;;;13.98;;
80694;SDS011;70059;42.702;23.312;2023-05-16T15:51:15;19.95;;;12.90;;
80694;SDS011;70059;42.702;23.312;2023-05-16T15:53:40;18.08;;;13.00;;
80694;SDS011;70059;42.702;23.312;2023-05-16T15:56:07;21.23;;;12.60;;
80694;SDS011;70059;42.702;23.312;2023-05-16T15:58:33;23.80;;;14.65;;
80694;SDS011;70059;42.702;23.312;2023-05-16T16:01:00;21.55;;;15.60;;
80694;SDS011;70059;42.702;23.312;2023-05-16T16:03:25;22.52;;;14.40;;
80694;SDS011;70059;42.702;23.312;2023-05-16T16:05:51;25.75;;;15.65;;
80694;SDS011;70059;42.702;23.312;2023-05-16T16:08:17;26.80;;;17.55;;
80694;SDS011;70059;42.702;23.312;2023-05-16T16:10:44;22.63;;;16.63;;
80694;SDS011;70059;42.702;23.312;2023-05-16T16:13:10;38.47;;;22.42;;
80694;SDS011;70059;42.702;23.312;2023-05-16T16:15:36;43.03;;;25.50;;
80694;SDS011;70059;42.702;23.312;2023-05-16T16:18:03;32.35;;;19.10;;
80694;SDS011;70059;42.702;23.312;2023-05-16T16:20:30;29.90;;;17.90;;
80694;SDS011;70059;42.702;23.312;2023-05-16T16:22:56;30.75;;;19.55;;
80694;SDS011;70059;42.702;23.312;2023-05-16T16:25:22;25.70;;;17.13;;
80694;SDS011;70059;42.702;23.312;2023-05-16T16:27:47;29.80;;;18.30;;
80694;SDS011;70059;42.702;23.312;2023-05-16T16:30:13;26.38;;;17.50;;
80694;SDS011;70059;42.702;23.312;2023-05-16T16:32:46;26.77;;;17.15;;
80694;SDS011;70059;42.702;23.312;2023-05-16T16:35:12;20.83;;;14.93;;
80694;SDS011;70059;42.702;23.312;2023-05-16T16:37:38;24.17;;;14.52;;
80694;SDS011;70059;42.702;23.312;2023-05-16T16:40:06;23.00;;;14.90;;
80694;SDS011;70059;42.702;23.312;2023-05-16T16:42:33;21.55;;;15.48;;
80694;SDS011;70059;42.702;23.312;2023-05-16T16:45:01;22.73;;;14.32;;
80694;SDS011;70059;42.702;23.312;2023-05-16T16:47:29;22.48;;;15.20;;
80694;SDS011;70059;42.702;23.312;2023-05-16T16:49:56;22.15;;;15.25;;
80694;SDS011;70059;42.702;23.312;2023-05-16T16:52:22;20.92;;;15.27;;
80694;SDS011;70059;42.702;23.312;2023-05-16T16:54:48;20.50;;;15.20;;
80694;SDS011;70059;42.702;23.312;2023-05-16T16:57:13;23.30;;;16.88;;
80694;SDS011;70059;42.702;23.312;2023-05-16T16:59:39;23.20;;;17.20;;
80694;SDS011;70059;42.702;23.312;2023-05-16T17:02:19;26.33;;;16.73;;
80694;SDS011;70059;42.702;23.312;2023-05-16T17:04:45;26.30;;;17.77;;
80694;SDS011;70059;42.702;23.312;2023-05-16T17:07:10;24.17;;;16.95;;
80694;SDS011;70059;42.702;23.312;2023-05-16T17:09:37;27.15;;;16.75;;
80694;SDS011;70059;42.702;23.312;2023-05-16T17:12:06;27.10;;;17.13;;
80694;SDS011;70059;42.702;23.312;2023-05-16T17:14:39;25.50;;;17.65;;
80694;SDS011;70059;42.702;23.312;2023-05-16T17:17:08;25.30;;;16.85;;
80694;SDS011;70059;42.702;23.312;2023-05-16T17:19:33;25.52;;;17.00;;
80694;SDS011;70059;42.702;23.312;2023-05-16T17:21:59;24.33;;;16.55;;
80694;SDS011;70059;42.702;23.312;2023-05-16T17:24:25;24.50;;;17.35;;
80694;SDS011;70059;42.702;23.312;2023-05-16T17:26:51;23.20;;;16.65;;
80694;SDS011;70059;42.702;23.312;2023-05-16T17:29:16;26.10;;;16.63;;
80694;SDS011;70059;42.702;23.312;2023-05-16T17:31:42;27.05;;;18.20;;
80694;SDS011;70059;42.702;23.312;2023-05-16T17:34:21;26.80;;;17.92;;
80694;SDS011;70059;42.702;23.312;2023-05-16T17:36:47;26.45;;;18.60;;
80694;SDS011;70059;42.702;23.312;2023-05-16T17:39:13;26.05;;;18.98;;
80694;SDS011;70059;42.702;23.312;2023-05-16T17:41:40;25.77;;;19.33;;
80694;SDS011;70059;42.702;23.312;2023-05-16T17:44:13;30.48;;;20.40;;
80694;SDS011;70059;42.702;23.312;2023-05-16T17:46:39;31.25;;;19.92;;
80694;SDS011;70059;42.702;23.312;2023-05-16T17:49:06;27.63;;;18.48;;
80694;SDS011;70059;42.702;23.312;2023-05-16T17:51:44;25.92;;;19.30;;
80694;SDS011;70059;42.702;23.312;2023-05-16T17:54:11;37.92;;;22.13;;
80694;SDS011;70059;42.702;23.312;2023-05-16T17:56:37;32.05;;;20.45;;
80694;SDS011;70059;42.702;23.312;2023-05-16T17:59:02;30.48;;;20.50;;
80694;SDS011;70059;42.702;23.312;2023-05-16T18:01:29;28.42;;;20.55;;
80694;SDS011;70059;42.702;23.312;2023-05-16T18:03:54;34.05;;;21.98;;
80694;SDS011;70059;42.702;23.312;2023-05-16T18:06:20;28.50;;;19.65;;
80694;SDS011;70059;42.702;23.312;2023-05-16T18:08:46;28.98;;;19.60;;
80694;SDS011;70059;42.702;23.312;2023-05-16T18:11:11;25.63;;;18.05;;
80694;SDS011;70059;42.702;23.312;2023-05-16T18:13:37;26.05;;;18.92;;